createdAt,value
2023-04-17T00:01:04.060Z,19.80
2023-04-17T00:06:10.004Z,17.30
2023-04-17T00:11:18.000Z,16.80
2023-04-17T00:16:24.319Z,17.50
2023-04-17T00:21:30.037Z,19.30
2023-04-17T00:26:35.673Z,20.40
2023-04-17T00:31:41.615Z,17.40
2023-04-17T00:36:47.042Z,16.40
2023-04-17T00:41:52.543Z,19.80
2023-04-17T00:46:57.951Z,19.30
2023-04-17T00:52:03.986Z,19.80
2023-04-17T00:57:09.909Z,17.70
2023-04-17T01:02:16.744Z,17.80
2023-04-17T01:07:22.568Z,19.50
2023-04-17T01:12:28.012Z,20.90
2023-04-17T01:17:33.594Z,17.90
2023-04-17T01:22:39.524Z,16.80
2023-04-17T01:27:44.935Z,19.30
2023-04-17T01:32:50.848Z,21.80
2023-04-17T01:37:56.891Z,17.90
2023-04-17T01:43:02.355Z,20.70
2023-04-17T01:48:08.710Z,19.40
2023-04-17T01:53:14.126Z,20.40
2023-04-17T01:58:19.987Z,19.20
2023-04-17T02:03:25.993Z,17.90
2023-04-17T02:08:31.550Z,18.00
2023-04-17T02:13:38.254Z,21.30
2023-04-17T02:18:43.770Z,21.10
2023-04-17T02:23:49.261Z,21.40
2023-04-17T02:28:54.949Z,17.50
2023-04-17T02:34:00.872Z,19.00
2023-04-17T02:39:07.438Z,19.20
2023-04-17T02:44:12.943Z,22.20
2023-04-17T02:49:18.548Z,18.80
2023-04-17T02:54:24.174Z,19.30
2023-04-17T02:59:30.314Z,20.90
2023-04-17T03:04:38.804Z,20.70
2023-04-17T03:09:45.787Z,18.90
2023-04-17T03:14:52.466Z,27.70
2023-04-17T03:19:57.911Z,30.30
2023-04-17T03:25:03.393Z,22.80
2023-04-17T03:30:15.816Z,20.70
2023-04-17T03:35:25.200Z,21.70
2023-04-17T03:40:33.209Z,26.00
2023-04-17T03:45:39.726Z,25.00
2023-04-17T03:50:45.387Z,22.20
2023-04-17T03:55:51.216Z,25.30
2023-04-17T04:01:04.123Z,27.30
2023-04-17T04:06:13.235Z,23.90
2023-04-17T04:11:18.855Z,19.90
2023-04-17T04:16:24.461Z,25.90
2023-04-17T04:21:31.820Z,24.60
2023-04-17T04:26:41.001Z,23.50
2023-04-17T04:31:46.920Z,21.40
2023-04-17T04:36:52.828Z,21.40
2023-04-17T04:42:29.431Z,21.50
2023-04-17T04:47:44.547Z,18.90
2023-04-17T04:52:50.864Z,22.00
2023-04-17T04:58:11.108Z,21.60
2023-04-17T05:03:17.588Z,20.50
2023-04-17T05:08:24.671Z,20.00
2023-04-17T05:13:39.272Z,21.10
2023-04-17T05:18:48.369Z,20.90
2023-04-17T05:23:56.929Z,23.70
2023-04-17T05:29:02.350Z,21.50
2023-04-17T05:34:10.344Z,21.20
2023-04-17T05:39:16.775Z,22.80
2023-04-17T05:44:22.578Z,19.10
2023-04-17T05:49:28.528Z,20.00
2023-04-17T05:54:34.145Z,23.60
2023-04-17T05:59:40.365Z,17.10
2023-04-17T06:04:48.056Z,24.00
2023-04-17T06:09:53.581Z,21.30
2023-04-17T06:14:59.627Z,17.10
2023-04-17T06:20:11.765Z,19.60
2023-04-17T06:25:18.131Z,21.50
2023-04-17T06:30:24.012Z,21.80
2023-04-17T06:35:31.843Z,20.20
2023-04-17T06:40:43.505Z,19.00
2023-04-17T06:45:49.918Z,17.90
2023-04-17T06:50:55.360Z,17.40
2023-04-17T06:56:00.846Z,19.50
2023-04-17T07:01:06.640Z,15.90
2023-04-17T07:06:12.391Z,15.30
2023-04-17T07:11:17.957Z,15.80
2023-04-17T07:16:23.619Z,14.80
2023-04-17T07:21:29.272Z,13.30
2023-04-17T07:26:37.532Z,14.30
2023-04-17T07:31:43.032Z,13.90
2023-04-17T07:36:50.287Z,12.30
2023-04-17T07:41:56.851Z,13.00
2023-04-17T07:47:02.477Z,13.80
2023-04-17T07:52:08.824Z,15.20
2023-04-17T07:57:15.554Z,14.70
2023-04-17T08:02:22.753Z,14.00
2023-04-17T08:07:28.770Z,14.20
2023-04-17T08:12:34.288Z,15.00
2023-04-17T08:17:41.440Z,13.50
2023-04-17T08:22:47.660Z,14.50
2023-04-17T08:27:53.230Z,11.70
2023-04-17T08:32:58.877Z,16.80
2023-04-17T08:38:04.400Z,13.90
2023-04-17T08:43:16.447Z,15.70
2023-04-17T08:48:22.950Z,13.30
2023-04-17T08:53:28.582Z,14.30
2023-04-17T08:58:35.800Z,15.70
2023-04-17T09:03:43.521Z,12.00
2023-04-17T09:09:00.714Z,14.30
2023-04-17T09:14:06.358Z,12.00
2023-04-17T09:19:12.106Z,13.90
2023-04-17T09:24:32.099Z,12.60
2023-04-17T09:29:58.060Z,12.00
2023-04-17T09:35:06.153Z,11.30
2023-04-17T09:40:12.776Z,15.10
2023-04-17T09:45:24.464Z,13.30
2023-04-17T09:50:32.428Z,10.60
2023-04-17T09:55:41.696Z,9.70
2023-04-17T10:00:48.250Z,10.00
2023-04-17T10:05:54.271Z,12.10
2023-04-17T10:11:07.274Z,13.80
2023-04-17T10:16:13.111Z,13.60
2023-04-17T10:21:24.265Z,12.60
2023-04-17T10:26:37.975Z,12.20
2023-04-17T10:32:26.562Z,12.40
2023-04-17T10:37:59.423Z,12.90
2023-04-17T10:43:07.530Z,14.40
2023-04-17T10:48:26.521Z,11.10
2023-04-17T10:53:42.798Z,10.20
2023-04-17T10:58:59.721Z,13.10
2023-04-17T11:04:06.287Z,9.00
2023-04-17T11:09:12.268Z,9.30
2023-04-17T11:14:19.999Z,10.00
2023-04-17T11:19:26.616Z,12.40
2023-04-17T11:24:32.801Z,7.90
2023-04-17T11:29:38.210Z,13.10
2023-04-17T11:34:44.056Z,9.60
2023-04-17T11:39:49.480Z,11.40
2023-04-17T11:45:07.719Z,8.80
2023-04-17T11:50:16.750Z,12.10
2023-04-17T11:55:22.845Z,11.30
2023-04-17T12:00:30.162Z,8.20
2023-04-17T12:05:36.409Z,10.90
2023-04-17T12:10:45.559Z,10.60
2023-04-17T12:15:51.067Z,9.90
2023-04-17T12:20:56.701Z,10.20
2023-04-17T12:26:02.085Z,8.70
2023-04-17T12:31:07.915Z,9.40
2023-04-17T12:36:13.543Z,10.60
2023-04-17T12:41:20.091Z,10.80
2023-04-17T12:46:26.090Z,9.40
2023-04-17T12:51:37.476Z,9.90
2023-04-17T12:56:42.976Z,9.80
2023-04-17T13:01:48.695Z,9.90
2023-04-17T13:06:54.056Z,11.00
2023-04-17T13:11:59.530Z,8.60
2023-04-17T13:17:06.359Z,9.40
2023-04-17T13:22:12.297Z,12.40
2023-04-17T13:27:17.654Z,7.20
2023-04-17T13:32:23.398Z,6.80
2023-04-17T13:37:28.919Z,10.10
2023-04-17T13:42:34.381Z,7.00
2023-04-17T13:47:40.454Z,7.00
2023-04-17T13:52:46.008Z,8.60
2023-04-17T13:57:51.722Z,8.70
2023-04-17T14:02:57.536Z,6.60
2023-04-17T14:08:03.182Z,7.10
2023-04-17T14:13:09.651Z,8.80
2023-04-17T14:18:15.700Z,7.80
2023-04-17T14:23:21.155Z,7.20
2023-04-17T14:28:26.963Z,7.30
2023-04-17T14:33:32.723Z,8.10
2023-04-17T14:38:38.479Z,7.30
2023-04-17T14:43:44.681Z,9.00
2023-04-17T14:48:55.284Z,8.50
2023-04-17T14:54:01.525Z,6.50
2023-04-17T14:59:07.093Z,8.40
2023-04-17T15:04:12.635Z,8.90
2023-04-17T15:09:18.398Z,11.90
2023-04-17T15:14:23.980Z,7.20
2023-04-17T15:19:29.535Z,10.00
2023-04-17T15:24:36.004Z,8.60
2023-04-17T15:29:41.346Z,9.20
2023-04-17T15:34:47.420Z,8.20
2023-04-17T15:39:52.864Z,9.80
2023-04-17T15:44:58.529Z,7.60
2023-04-17T15:50:06.524Z,10.20
2023-04-17T15:55:12.512Z,10.90
2023-04-17T16:00:19.460Z,9.50
2023-04-17T16:05:24.960Z,9.40
2023-04-17T16:10:30.944Z,10.70
2023-04-17T16:15:36.593Z,11.40
2023-04-17T16:20:42.284Z,10.40
2023-04-17T16:25:50.264Z,10.80
2023-04-17T16:30:56.393Z,10.70
2023-04-17T16:36:02.300Z,11.00
2023-04-17T16:41:08.197Z,8.80
2023-04-17T16:46:23.853Z,12.00
2023-04-17T16:51:34.235Z,10.00
2023-04-17T16:56:40.413Z,11.80
2023-04-17T17:01:47.285Z,9.80
2023-04-17T17:06:52.829Z,12.50
2023-04-17T17:11:58.323Z,12.10
2023-04-17T17:17:03.764Z,12.80
2023-04-17T17:22:09.914Z,10.80
2023-04-17T17:27:15.627Z,10.20
2023-04-17T17:32:21.481Z,13.10
2023-04-17T17:37:27.687Z,9.80
2023-04-17T17:42:33.596Z,12.90
2023-04-17T17:47:40.624Z,10.50
2023-04-17T17:52:46.826Z,11.70
2023-04-17T17:57:52.242Z,11.00
2023-04-17T18:02:57.927Z,11.00
2023-04-17T18:08:03.796Z,12.30
2023-04-17T18:13:09.550Z,10.40
2023-04-17T18:18:15.341Z,10.70
2023-04-17T18:23:21.370Z,13.00
2023-04-17T18:28:27.497Z,14.30
2023-04-17T18:33:33.709Z,14.90
2023-04-17T18:38:39.522Z,16.50
2023-04-17T18:43:44.939Z,19.20
2023-04-17T18:48:50.725Z,14.60
2023-04-17T18:53:56.482Z,15.60
2023-04-17T18:59:02.516Z,13.70
2023-04-17T19:04:08.303Z,13.80
2023-04-17T19:09:14.100Z,15.10
2023-04-17T19:14:19.770Z,12.80
2023-04-17T19:19:25.644Z,14.50
2023-04-17T19:24:32.296Z,20.10
2023-04-17T19:29:38.341Z,21.30
2023-04-17T19:34:44.432Z,21.20
2023-04-17T19:39:51.592Z,18.30
2023-04-17T19:45:00.129Z,16.90
2023-04-17T19:50:06.700Z,16.40
2023-04-17T19:55:12.955Z,17.00
2023-04-17T20:00:19.398Z,19.10
2023-04-17T20:05:25.353Z,19.40
2023-04-17T20:10:30.970Z,18.30
2023-04-17T20:15:36.335Z,22.70
2023-04-17T20:20:41.787Z,16.50
2023-04-17T20:25:47.312Z,18.70
2023-04-17T20:30:52.871Z,19.00
2023-04-17T20:35:58.930Z,20.20
2023-04-17T20:41:04.608Z,21.80
2023-04-17T20:46:10.360Z,18.50
2023-04-17T20:51:18.273Z,27.70
2023-04-17T20:56:24.280Z,22.30
2023-04-17T21:01:29.834Z,23.40
2023-04-17T21:06:35.619Z,20.20
2023-04-17T21:11:41.670Z,24.50
2023-04-17T21:16:47.113Z,20.60
2023-04-17T21:21:53.425Z,23.10
2023-04-17T21:27:01.013Z,20.20
2023-04-17T21:32:07.297Z,20.40
2023-04-17T21:37:12.647Z,19.40
2023-04-17T21:42:18.103Z,21.30
2023-04-17T21:47:23.537Z,22.20
2023-04-17T21:52:29.290Z,19.10
2023-04-17T21:57:35.850Z,20.10
2023-04-17T22:02:41.506Z,23.00
2023-04-17T22:07:54.352Z,21.50
2023-04-17T22:13:01.204Z,21.20
2023-04-17T22:18:07.414Z,23.00
2023-04-17T22:23:12.992Z,22.20
2023-04-17T22:28:18.774Z,19.20
2023-04-17T22:33:24.317Z,19.60
2023-04-17T22:38:29.718Z,21.70
2023-04-17T22:43:36.380Z,23.60
2023-04-17T22:48:45.201Z,22.30
2023-04-17T22:53:50.957Z,24.90
2023-04-17T22:58:56.518Z,21.00
2023-04-17T23:04:01.921Z,22.00
2023-04-17T23:09:07.607Z,25.00
2023-04-17T23:14:13.410Z,22.10
2023-04-17T23:19:21.198Z,24.50
2023-04-17T23:24:26.668Z,24.60
2023-04-17T23:29:32.070Z,23.50
2023-04-17T23:34:37.907Z,22.80
2023-04-17T23:39:43.712Z,24.10
2023-04-17T23:44:49.337Z,25.50
2023-04-17T23:49:54.715Z,20.30
2023-04-17T23:55:00.099Z,21.40
